createdAt,value
2023-03-27T00:00:24.406Z,1372.00
2023-03-27T00:04:24.787Z,1534.00
2023-03-27T00:08:24.823Z,1626.00
2023-03-27T00:12:25.303Z,1713.00
2023-03-27T00:16:25.174Z,1502.00
2023-03-27T00:20:25.500Z,1635.00
2023-03-27T00:24:25.955Z,968.00
2023-03-27T00:28:25.749Z,929.00
2023-03-27T00:32:26.324Z,800.00
2023-03-27T00:36:26.259Z,768.00
2023-03-27T00:40:26.330Z,653.00
2023-03-27T00:44:26.883Z,845.00
2023-03-27T00:48:26.842Z,1451.00
2023-03-27T00:52:26.741Z,1858.00
2023-03-27T00:56:27.418Z,1949.00
2023-03-27T01:00:27.124Z,1843.00
2023-03-27T01:04:27.434Z,1653.00
2023-03-27T01:08:27.054Z,1663.00
2023-03-27T01:12:26.982Z,1585.00
2023-03-27T01:16:27.406Z,1550.00
2023-03-27T01:20:26.974Z,1294.00
2023-03-27T01:24:27.360Z,1183.00
2023-03-27T01:28:27.323Z,1003.00
2023-03-27T01:32:26.959Z,1223.00
2023-03-27T01:36:26.860Z,1282.00
2023-03-27T01:40:27.087Z,1142.00
2023-03-27T01:44:27.404Z,1362.00
2023-03-27T01:48:28.151Z,987.00
2023-03-27T01:52:27.321Z,827.00
2023-03-27T01:56:27.285Z,783.00
2023-03-27T02:00:27.307Z,870.00
2023-03-27T02:04:28.288Z,948.00
2023-03-27T02:08:27.349Z,1219.00
2023-03-27T02:12:27.222Z,1059.00
2023-03-27T02:16:27.195Z,1191.00
2023-03-27T02:20:27.349Z,1102.00
2023-03-27T02:24:27.086Z,1058.00
2023-03-27T02:28:27.086Z,1109.00
2023-03-27T02:32:27.124Z,984.00
2023-03-27T02:36:27.009Z,1017.00
2023-03-27T02:40:27.195Z,910.00
2023-03-27T02:44:27.434Z,832.00
2023-03-27T02:48:26.958Z,974.00
2023-03-27T02:52:26.937Z,1074.00
2023-03-27T02:56:27.160Z,654.00
2023-03-27T03:00:26.977Z,446.00
2023-03-27T03:04:26.921Z,564.00
2023-03-27T03:08:27.089Z,529.00
2023-03-27T03:12:27.911Z,791.00
2023-03-27T03:16:27.002Z,882.00
2023-03-27T03:20:26.926Z,890.00
2023-03-27T03:24:26.734Z,507.00
2023-03-27T03:28:26.671Z,568.00
2023-03-27T03:32:26.915Z,633.00
2023-03-27T03:36:26.840Z,655.00
2023-03-27T03:40:26.867Z,872.00
2023-03-27T03:44:26.462Z,772.00
2023-03-27T03:48:26.882Z,498.00
2023-03-27T03:52:26.837Z,499.00
2023-03-27T03:56:26.951Z,453.00
2023-03-27T04:00:26.908Z,400.00
2023-03-27T04:04:26.467Z,468.00
2023-03-27T04:08:26.926Z,579.00
2023-03-27T04:12:26.878Z,837.00
2023-03-27T04:16:26.725Z,1292.00
2023-03-27T04:20:26.772Z,1048.00
2023-03-27T04:24:26.845Z,911.00
2023-03-27T04:28:26.810Z,626.00
2023-03-27T04:32:26.938Z,580.00
2023-03-27T04:36:28.483Z,677.00
2023-03-27T04:40:26.975Z,539.00
2023-03-27T04:44:27.394Z,574.00
2023-03-27T04:48:26.927Z,571.00
2023-03-27T04:52:26.861Z,600.00
2023-03-27T04:56:26.834Z,956.00
2023-03-27T05:00:26.862Z,1424.00
2023-03-27T05:04:26.818Z,1812.00
2023-03-27T05:08:26.721Z,1845.00
2023-03-27T05:12:26.686Z,1737.00
2023-03-27T05:16:26.663Z,2217.00
2023-03-27T05:20:26.706Z,2327.00
2023-03-27T05:24:26.761Z,2015.00
2023-03-27T05:28:26.637Z,2591.00
2023-03-27T05:32:26.912Z,2345.00
2023-03-27T05:45:06.270Z,500.00
2023-03-27T05:49:06.519Z,522.00
2023-03-27T05:53:06.548Z,1007.00
2023-03-27T05:57:06.217Z,1054.00
2023-03-27T06:01:06.552Z,1407.00
2023-03-27T06:05:06.519Z,995.00
2023-03-27T06:09:06.098Z,1155.00
2023-03-27T06:13:06.550Z,1440.00
2023-03-27T06:17:06.013Z,632.00
2023-03-27T06:21:06.011Z,1003.00
2023-03-27T06:25:06.059Z,956.00
2023-03-27T06:29:08.162Z,1270.00
2023-03-27T06:33:06.569Z,856.00
2023-03-27T06:37:06.046Z,1277.00
2023-03-27T06:41:06.020Z,1542.00
2023-03-27T06:45:06.109Z,1157.00
2023-03-27T06:49:06.056Z,1251.00
2023-03-27T06:53:09.988Z,4072.00
2023-03-27T06:57:06.896Z,1099.00
2023-03-27T07:01:06.036Z,561.00
2023-03-27T07:05:05.803Z,511.00
2023-03-27T07:09:06.166Z,500.00
2023-03-27T07:13:05.972Z,870.00
2023-03-27T07:17:08.099Z,671.00
2023-03-27T07:21:06.190Z,524.00
2023-03-27T07:25:05.853Z,686.00
2023-03-27T07:29:06.127Z,620.00
2023-03-27T07:33:06.656Z,868.00
2023-03-27T07:37:06.045Z,980.00
2023-03-27T07:41:06.120Z,849.00
2023-03-27T07:45:06.124Z,798.00
2023-03-27T07:49:05.736Z,540.00
2023-03-27T07:53:05.609Z,511.00
2023-03-27T07:57:06.237Z,714.00
2023-03-27T08:01:05.527Z,1350.00
2023-03-27T08:05:05.802Z,1567.00
2023-03-27T08:09:05.481Z,1080.00
2023-03-27T08:13:05.525Z,1243.00
2023-03-27T08:17:15.145Z,806.00
2023-03-27T08:21:06.397Z,648.00
2023-03-27T08:25:05.321Z,1304.00
2023-03-27T08:29:05.275Z,1178.00
2023-03-27T08:33:05.328Z,939.00
2023-03-27T08:37:05.424Z,1353.00
2023-03-27T08:41:05.447Z,560.00
2023-03-27T08:45:05.513Z,1219.00
2023-03-27T08:49:05.647Z,1105.00
2023-03-27T08:53:05.769Z,1717.00
2023-03-27T08:57:05.951Z,939.00
2023-03-27T09:01:05.978Z,1071.00
2023-03-27T09:05:06.111Z,992.00
2023-03-27T09:09:06.286Z,965.00
2023-03-27T09:13:06.589Z,1223.00
2023-03-27T09:17:06.661Z,1791.00
2023-03-27T09:21:06.535Z,1531.00
2023-03-27T09:25:06.706Z,1913.00
2023-03-27T09:29:06.639Z,1063.00
2023-03-27T09:33:06.798Z,543.00
2023-03-27T09:37:06.750Z,661.00
2023-03-27T09:41:06.775Z,464.00
2023-03-27T09:45:06.900Z,1009.00
2023-03-27T09:49:06.825Z,868.00
2023-03-27T09:53:06.792Z,660.00
2023-03-27T09:57:06.826Z,658.00
2023-03-27T10:01:06.744Z,549.00
2023-03-27T10:05:06.700Z,1361.00
2023-03-27T10:09:06.676Z,1202.00
2023-03-27T10:13:07.098Z,1404.00
2023-03-27T10:17:07.080Z,576.00
2023-03-27T10:21:06.553Z,424.00
2023-03-27T10:25:06.604Z,860.00
2023-03-27T10:29:06.496Z,894.00
2023-03-27T10:33:07.128Z,400.00
2023-03-27T10:37:07.071Z,1049.00
2023-03-27T10:41:07.047Z,874.00
2023-03-27T10:45:07.560Z,493.00
2023-03-27T10:49:07.578Z,677.00
2023-03-27T10:53:07.647Z,2460.00
2023-03-27T10:57:07.632Z,3787.00
2023-03-27T11:01:07.594Z,3936.00
2023-03-27T11:05:07.696Z,3933.00
2023-03-27T11:09:07.692Z,3134.00
2023-03-27T11:13:08.065Z,2940.00
2023-03-27T11:17:08.195Z,3132.00
2023-03-27T11:21:07.877Z,3331.00
2023-03-27T11:25:08.093Z,3144.00
2023-03-27T11:29:08.164Z,3699.00
2023-03-27T11:33:08.674Z,3967.00
2023-03-27T11:37:08.326Z,3600.00
2023-03-27T11:41:08.680Z,3672.00
2023-03-27T11:45:09.112Z,2973.00
2023-03-27T11:49:09.047Z,3017.00
2023-03-27T11:53:09.070Z,2762.00
2023-03-27T11:57:08.706Z,2802.00
2023-03-27T12:01:08.567Z,2721.00
2023-03-27T12:05:08.579Z,2870.00
2023-03-27T12:09:08.450Z,3144.00
2023-03-27T12:13:08.589Z,2976.00
2023-03-27T12:17:08.403Z,2163.00
2023-03-27T12:21:09.109Z,1805.00
2023-03-27T12:25:09.119Z,1853.00
2023-03-27T12:29:23.374Z,2057.00
2023-03-27T12:33:09.777Z,2075.00
2023-03-27T12:37:08.669Z,1179.00
2023-03-27T12:41:09.077Z,400.00
2023-03-27T12:45:09.136Z,1253.00
2023-03-27T12:49:09.646Z,2470.00
2023-03-27T12:53:09.341Z,2462.00
2023-03-27T12:57:09.749Z,2680.00
2023-03-27T13:01:19.610Z,2731.00
2023-03-27T13:05:24.091Z,2577.00
2023-03-27T13:09:10.612Z,2708.00
2023-03-27T13:13:09.185Z,2736.00
2023-03-27T13:17:09.623Z,2621.00
2023-03-27T13:21:09.136Z,2935.00
2023-03-27T13:25:09.618Z,2804.00
2023-03-27T13:29:09.643Z,676.00
2023-03-27T13:33:09.492Z,474.00
2023-03-27T13:37:09.682Z,1683.00
2023-03-27T13:41:09.827Z,2322.00
2023-03-27T13:45:10.104Z,2856.00
2023-03-27T13:49:09.931Z,400.00
2023-03-27T13:53:10.140Z,400.00
2023-03-27T13:57:10.182Z,2266.00
2023-03-27T14:01:10.621Z,1668.00
2023-03-27T14:05:10.255Z,875.00
2023-03-27T14:09:10.189Z,962.00
2023-03-27T14:13:11.092Z,820.00
2023-03-27T14:17:10.116Z,496.00
2023-03-27T14:21:10.114Z,400.00
2023-03-27T14:25:10.125Z,441.00
2023-03-27T14:29:10.010Z,1130.00
2023-03-27T14:33:10.199Z,2127.00
2023-03-27T14:37:10.162Z,1017.00
2023-03-27T14:41:09.980Z,919.00
2023-03-27T14:45:10.609Z,1099.00
2023-03-27T14:49:10.344Z,3252.00
2023-03-27T14:53:10.634Z,2863.00
2023-03-27T14:57:10.694Z,4185.00
2023-03-27T15:01:10.594Z,3808.00
2023-03-27T15:05:10.828Z,3670.00
2023-03-27T15:09:11.109Z,3470.00
2023-03-27T15:13:11.238Z,3742.00
2023-03-27T15:17:11.144Z,3600.00
2023-03-27T15:21:10.688Z,3856.00
2023-03-27T15:25:10.649Z,3905.00
2023-03-27T15:29:10.622Z,3867.00
2023-03-27T15:33:10.653Z,3874.00
2023-03-27T15:37:10.637Z,4006.00
2023-03-27T15:41:10.496Z,3751.00
2023-03-27T15:45:10.482Z,3733.00
2023-03-27T15:49:10.422Z,3867.00
2023-03-27T15:53:10.677Z,4091.00
2023-03-27T15:57:11.720Z,3863.00
2023-03-27T16:01:18.065Z,3945.00
2023-03-27T16:05:11.275Z,4126.00
2023-03-27T16:09:10.668Z,3721.00
2023-03-27T16:13:10.602Z,3111.00
2023-03-27T16:17:11.150Z,1740.00
2023-03-27T16:21:10.996Z,2104.00
2023-03-27T16:25:12.761Z,2130.00
2023-03-27T16:29:11.241Z,3282.00
2023-03-27T16:33:12.339Z,2896.00
2023-03-27T16:37:11.682Z,2974.00
2023-03-27T16:41:11.342Z,3324.00
2023-03-27T16:45:11.661Z,1625.00
2023-03-27T16:49:11.544Z,2666.00
2023-03-27T16:53:11.654Z,1713.00
2023-03-27T16:57:11.702Z,3200.00
2023-03-27T17:01:11.843Z,3428.00
2023-03-27T17:05:12.233Z,2896.00
2023-03-27T17:09:12.139Z,3482.00
2023-03-27T17:13:11.698Z,2759.00
2023-03-27T17:17:12.175Z,2857.00
2023-03-27T17:21:11.634Z,2419.00
2023-03-27T17:25:11.685Z,2684.00
2023-03-27T17:29:11.669Z,2719.00
2023-03-27T17:33:11.559Z,2849.00
2023-03-27T17:37:11.698Z,3100.00
2023-03-27T17:41:11.446Z,2753.00
2023-03-27T17:45:11.728Z,3360.00
2023-03-27T17:49:11.686Z,3828.00
2023-03-27T17:53:11.679Z,3419.00
2023-03-27T17:57:11.347Z,3528.00
2023-03-27T18:01:11.745Z,3276.00
2023-03-27T18:05:11.395Z,3452.00
2023-03-27T18:09:11.683Z,2434.00
2023-03-27T18:13:11.294Z,2233.00
2023-03-27T18:17:11.356Z,2510.00
2023-03-27T18:21:11.675Z,2868.00
2023-03-27T18:25:11.512Z,3117.00
2023-03-27T18:29:11.726Z,3085.00
2023-03-27T18:33:11.732Z,3308.00
2023-03-27T18:37:11.577Z,3108.00
2023-03-27T18:41:11.679Z,2592.00
2023-03-27T18:45:11.778Z,2652.00
2023-03-27T18:49:23.493Z,2607.00
2023-03-27T18:53:13.203Z,2795.00
2023-03-27T18:57:11.831Z,3523.00
2023-03-27T19:01:12.238Z,3706.00
2023-03-27T19:05:12.205Z,3115.00
2023-03-27T19:09:12.194Z,1635.00
2023-03-27T19:13:12.132Z,1547.00
2023-03-27T19:17:12.323Z,2385.00
2023-03-27T19:21:12.715Z,1900.00
2023-03-27T19:25:12.706Z,2748.00
2023-03-27T19:29:12.721Z,1709.00
2023-03-27T19:33:12.581Z,2439.00
2023-03-27T19:37:12.672Z,1369.00
2023-03-27T19:41:13.231Z,424.00
2023-03-27T19:45:13.215Z,906.00
2023-03-27T19:49:15.209Z,1195.00
2023-03-27T19:53:12.993Z,661.00
2023-03-27T19:57:13.049Z,430.00
2023-03-27T20:01:13.188Z,644.00
2023-03-27T20:05:12.881Z,813.00
2023-03-27T20:09:13.212Z,943.00
2023-03-27T20:13:12.823Z,1116.00
2023-03-27T20:21:13.224Z,3085.00
2023-03-27T20:25:13.224Z,3165.00
2023-03-27T20:29:13.040Z,2679.00
2023-03-27T20:33:13.712Z,2355.00
2023-03-27T20:37:13.726Z,2582.00
2023-03-27T20:41:13.242Z,1599.00
2023-03-27T20:45:13.257Z,1359.00
2023-03-27T20:49:13.118Z,766.00
2023-03-27T20:53:13.084Z,1541.00
2023-03-27T20:57:13.258Z,1788.00
2023-03-27T21:01:13.272Z,2288.00
2023-03-27T21:05:13.208Z,2811.00
2023-03-27T21:09:12.900Z,3071.00
2023-03-27T21:13:13.250Z,3558.00
2023-03-27T21:17:13.230Z,3636.00
2023-03-27T21:21:13.237Z,3512.00
2023-03-27T21:25:13.242Z,3559.00
2023-03-27T21:29:13.175Z,3247.00
2023-03-27T21:33:13.406Z,3198.00
2023-03-27T21:37:13.789Z,3443.00
2023-03-27T21:41:14.196Z,3563.00
2023-03-27T21:45:14.290Z,3575.00
2023-03-27T21:49:13.745Z,3512.00
2023-03-27T21:53:13.736Z,3356.00
2023-03-27T21:57:13.770Z,3503.00
2023-03-27T22:01:13.793Z,3549.00
2023-03-27T22:05:13.593Z,3647.00
2023-03-27T22:09:13.571Z,3517.00
2023-03-27T22:13:13.739Z,3641.00
2023-03-27T22:17:13.767Z,3439.00
2023-03-27T22:21:13.819Z,3292.00
2023-03-27T22:25:13.488Z,3355.00
2023-03-27T22:29:13.758Z,3570.00
2023-03-27T22:33:13.800Z,3491.00
2023-03-27T22:37:13.757Z,3348.00
2023-03-27T22:41:13.800Z,3098.00
2023-03-27T22:45:13.273Z,2616.00
2023-03-27T22:49:13.224Z,2297.00
2023-03-27T22:53:13.233Z,1978.00
2023-03-27T22:57:13.302Z,2554.00
2023-03-27T23:01:13.280Z,2766.00
2023-03-27T23:05:13.202Z,2423.00
2023-03-27T23:09:13.261Z,2587.00
2023-03-27T23:13:13.756Z,2974.00
2023-03-27T23:17:13.411Z,3243.00
2023-03-27T23:21:13.663Z,2855.00
2023-03-27T23:25:13.660Z,2759.00
2023-03-27T23:29:13.767Z,3128.00
2023-03-27T23:33:13.737Z,3040.00
2023-03-27T23:37:14.275Z,3096.00
2023-03-27T23:41:13.863Z,3086.00
2023-03-27T23:45:14.363Z,2192.00
2023-03-27T23:49:14.259Z,2667.00
2023-03-27T23:53:14.270Z,3078.00
2023-03-27T23:57:14.395Z,3219.00
